Huvudsida
METAR-TAF:

METAR-TAF

Flygplatser :

Luleå Airport

Luleå, Sverige

latitud: 65-33N, longitud: 022-08E, höjd: 17 m

Aktuellt väderrapport

Denna rapport gjordes för 34 minuter sedan, klockan 16:20 UTC
Vind 5 kt från syd/sydväst, varierande mellan syd och väst/sydväst
Temperatur 8°C
Fuktighet 81%
Tryck 1028 hPa
Sikt 10 km eller mer
Brutna moln på en höjd av 4300 ft

METAR: ESPA 181620Z 21005KT 170V250 9999 BKN043 08/05 Q1028

Tid: 18:54 (16:54 UTC)

Väderprognos

Denna rapport gjordes för 2 timmar och 24 minuter sedan, klockan 14:30 UTC
Prognos gäller från 18 kl. 15 UTC till 18 kl. 19 UTC
Vind 7 kt från syd
Sikt 10 km eller mer
Brutna moln på en höjd av 4500 ft

TAF: ESPA 181430Z 1815/1819 18007KT 9999 BKN045

Aktuella väderrapporter och prognoser från 4000 flygplatser (METAR- och TAF-rapporter).

De tillgängliga stationerna syns som gula och röda prickar på kartan.

För musen över prickarna för att se namnen på stationerna.

Klicka sedan för att få väderrapporter och prognoser.

För att ändra kartan: Klicka på de gröna knapparna med ett svart kors på för att zooma in; den gröna knappen med ett streck på för att zooma ut; eller på de gröna pilarna för angränsande kartor.


METAR-TAF: